sensor_id;sensor_type;location;lat;lon;timestamp;temperature;humidity
34837;DHT22;21053;50.848;4.652;2022-09-16T00:00:39;15.80;99.90
34837;DHT22;21053;50.848;4.652;2022-09-16T00:03:07;15.70;99.90
34837;DHT22;21053;50.848;4.652;2022-09-16T00:05:43;15.80;99.90
34837;DHT22;21053;50.848;4.652;2022-09-16T00:08:10;15.80;99.90
34837;DHT22;21053;50.848;4.652;2022-09-16T00:10:36;15.80;99.90
34837;DHT22;21053;50.848;4.652;2022-09-16T00:13:04;15.80;99.90
34837;DHT22;21053;50.848;4.652;2022-09-16T00:15:33;15.80;99.90
34837;DHT22;21053;50.848;4.652;2022-09-16T00:18:00;15.70;99.90
34837;DHT22;21053;50.848;4.652;2022-09-16T00:20:28;15.60;99.90
34837;DHT22;21053;50.848;4.652;2022-09-16T00:22:55;15.60;99.90
34837;DHT22;21053;50.848;4.652;2022-09-16T00:25:21;15.60;99.90
34837;DHT22;21053;50.848;4.652;2022-09-16T00:27:48;15.50;99.90
34837;DHT22;21053;50.848;4.652;2022-09-16T00:30:14;15.50;99.90
34837;DHT22;21053;50.848;4.652;2022-09-16T00:32:41;15.50;99.90
34837;DHT22;21053;50.848;4.652;2022-09-16T00:35:07;15.50;99.90
34837;DHT22;21053;50.848;4.652;2022-09-16T00:37:33;15.40;99.90
34837;DHT22;21053;50.848;4.652;2022-09-16T00:40:00;15.20;99.90
34837;DHT22;21053;50.848;4.652;2022-09-16T00:42:39;15.20;99.90
34837;DHT22;21053;50.848;4.652;2022-09-16T00:45:20;15.10;99.90
34837;DHT22;21053;50.848;4.652;2022-09-16T00:47:56;15.10;99.90
34837;DHT22;21053;50.848;4.652;2022-09-16T00:50:46;15.00;99.90
34837;DHT22;21053;50.848;4.652;2022-09-16T00:53:29;15.00;99.90
34837;DHT22;21053;50.848;4.652;2022-09-16T00:56:00;14.90;99.90
34837;DHT22;21053;50.848;4.652;2022-09-16T00:58:35;14.90;99.90
34837;DHT22;21053;50.848;4.652;2022-09-16T01:01:05;14.90;99.90
34837;DHT22;21053;50.848;4.652;2022-09-16T01:03:39;14.90;99.90
34837;DHT22;21053;50.848;4.652;2022-09-16T01:06:10;14.90;99.90
34837;DHT22;21053;50.848;4.652;2022-09-16T01:08:37;14.90;99.90
34837;DHT22;21053;50.848;4.652;2022-09-16T01:11:09;14.80;99.90
34837;DHT22;21053;50.848;4.652;2022-09-16T01:13:35;14.60;99.90
34837;DHT22;21053;50.848;4.652;2022-09-16T01:16:23;14.60;99.90
34837;DHT22;21053;50.848;4.652;2022-09-16T01:30:32;14.30;99.90
34837;DHT22;21053;50.848;4.652;2022-09-16T01:33:00;14.20;99.90
34837;DHT22;21053;50.848;4.652;2022-09-16T01:36:05;14.30;99.90
34837;DHT22;21053;50.848;4.652;2022-09-16T01:38:56;14.30;99.90
34837;DHT22;21053;50.848;4.652;2022-09-16T01:41:50;14.20;99.90
34837;DHT22;21053;50.848;4.652;2022-09-16T01:47:11;14.20;99.90
34837;DHT22;21053;50.848;4.652;2022-09-16T01:49:46;14.10;99.90
34837;DHT22;21053;50.848;4.652;2022-09-16T01:52:24;14.10;99.90
34837;DHT22;21053;50.848;4.652;2022-09-16T01:55:21;14.10;99.90
34837;DHT22;21053;50.848;4.652;2022-09-16T01:57:58;13.90;99.90
34837;DHT22;21053;50.848;4.652;2022-09-16T02:00:28;13.90;99.90
34837;DHT22;21053;50.848;4.652;2022-09-16T02:03:27;13.90;99.90
34837;DHT22;21053;50.848;4.652;2022-09-16T02:06:02;13.80;99.90
34837;DHT22;21053;50.848;4.652;2022-09-16T02:08:41;13.40;99.90
34837;DHT22;21053;50.848;4.652;2022-09-16T02:11:13;13.70;99.90
34837;DHT22;21053;50.848;4.652;2022-09-16T02:13:42;13.80;99.90
34837;DHT22;21053;50.848;4.652;2022-09-16T02:16:14;13.90;99.90
34837;DHT22;21053;50.848;4.652;2022-09-16T02:18:43;13.80;99.90
34837;DHT22;21053;50.848;4.652;2022-09-16T02:21:12;13.80;99.90
34837;DHT22;21053;50.848;4.652;2022-09-16T02:23:45;13.80;99.90
34837;DHT22;21053;50.848;4.652;2022-09-16T02:26:14;13.80;99.90
34837;DHT22;21053;50.848;4.652;2022-09-16T02:28:46;13.90;99.90
34837;DHT22;21053;50.848;4.652;2022-09-16T02:31:12;13.80;99.90
34837;DHT22;21053;50.848;4.652;2022-09-16T02:33:46;13.80;99.90
34837;DHT22;21053;50.848;4.652;2022-09-16T02:36:18;14.00;99.90
34837;DHT22;21053;50.848;4.652;2022-09-16T02:38:50;14.10;99.90
34837;DHT22;21053;50.848;4.652;2022-09-16T02:41:17;14.20;99.90
34837;DHT22;21053;50.848;4.652;2022-09-16T02:43:44;14.40;99.90
34837;DHT22;21053;50.848;4.652;2022-09-16T02:52:39;14.50;99.90
34837;DHT22;21053;50.848;4.652;2022-09-16T02:55:12;14.50;99.90
34837;DHT22;21053;50.848;4.652;2022-09-16T02:57:38;14.60;99.90
34837;DHT22;21053;50.848;4.652;2022-09-16T03:00:05;14.70;99.90
34837;DHT22;21053;50.848;4.652;2022-09-16T03:02:33;14.70;99.90
34837;DHT22;21053;50.848;4.652;2022-09-16T03:05:01;14.80;99.90
34837;DHT22;21053;50.848;4.652;2022-09-16T03:07:27;14.70;99.90
34837;DHT22;21053;50.848;4.652;2022-09-16T03:09:54;14.70;99.90
34837;DHT22;21053;50.848;4.652;2022-09-16T03:12:49;14.80;99.90
34837;DHT22;21053;50.848;4.652;2022-09-16T03:15:31;14.60;99.90
34837;DHT22;21053;50.848;4.652;2022-09-16T03:18:15;14.80;99.90
34837;DHT22;21053;50.848;4.652;2022-09-16T03:21:05;14.80;99.90
34837;DHT22;21053;50.848;4.652;2022-09-16T03:31:44;14.90;99.90
34837;DHT22;21053;50.848;4.652;2022-09-16T03:37:02;15.00;99.90
34837;DHT22;21053;50.848;4.652;2022-09-16T03:39:31;15.00;99.90
34837;DHT22;21053;50.848;4.652;2022-09-16T03:42:02;15.10;99.90
34837;DHT22;21053;50.848;4.652;2022-09-16T03:44:36;15.10;99.90
34837;DHT22;21053;50.848;4.652;2022-09-16T03:47:06;15.00;99.90
34837;DHT22;21053;50.848;4.652;2022-09-16T03:49:36;15.00;99.90
34837;DHT22;21053;50.848;4.652;2022-09-16T03:52:03;14.90;99.90
34837;DHT22;21053;50.848;4.652;2022-09-16T03:54:35;14.90;99.90
34837;DHT22;21053;50.848;4.652;2022-09-16T03:57:03;14.80;99.90
34837;DHT22;21053;50.848;4.652;2022-09-16T03:59:30;14.70;99.90
34837;DHT22;21053;50.848;4.652;2022-09-16T04:01:57;14.70;99.90
34837;DHT22;21053;50.848;4.652;2022-09-16T04:04:23;14.60;99.90
34837;DHT22;21053;50.848;4.652;2022-09-16T04:06:49;14.60;99.90
34837;DHT22;21053;50.848;4.652;2022-09-16T04:09:16;14.80;99.90
34837;DHT22;21053;50.848;4.652;2022-09-16T04:11:45;14.70;99.90
34837;DHT22;21053;50.848;4.652;2022-09-16T04:14:11;14.80;99.90
34837;DHT22;21053;50.848;4.652;2022-09-16T04:16:39;14.70;99.90
34837;DHT22;21053;50.848;4.652;2022-09-16T04:19:08;14.60;99.90
34837;DHT22;21053;50.848;4.652;2022-09-16T04:21:38;14.60;99.90
34837;DHT22;21053;50.848;4.652;2022-09-16T04:24:05;14.40;99.90
34837;DHT22;21053;50.848;4.652;2022-09-16T04:26:32;14.30;99.90
34837;DHT22;21053;50.848;4.652;2022-09-16T04:29:03;14.30;99.90
34837;DHT22;21053;50.848;4.652;2022-09-16T04:31:32;14.30;99.90
34837;DHT22;21053;50.848;4.652;2022-09-16T04:34:03;14.30;99.90
34837;DHT22;21053;50.848;4.652;2022-09-16T04:36:32;14.30;99.90
34837;DHT22;21053;50.848;4.652;2022-09-16T04:38:58;14.20;99.90
34837;DHT22;21053;50.848;4.652;2022-09-16T04:41:25;14.20;99.90
34837;DHT22;21053;50.848;4.652;2022-09-16T04:43:53;14.20;99.90
34837;DHT22;21053;50.848;4.652;2022-09-16T04:46:21;14.20;99.90
34837;DHT22;21053;50.848;4.652;2022-09-16T04:48:52;14.20;99.90
34837;DHT22;21053;50.848;4.652;2022-09-16T04:51:21;14.30;99.90
34837;DHT22;21053;50.848;4.652;2022-09-16T04:53:48;14.40;99.90
34837;DHT22;21053;50.848;4.652;2022-09-16T04:56:18;14.50;99.90
34837;DHT22;21053;50.848;4.652;2022-09-16T04:58:49;14.50;99.90
34837;DHT22;21053;50.848;4.652;2022-09-16T05:01:17;14.50;99.90
34837;DHT22;21053;50.848;4.652;2022-09-16T05:03:48;14.40;99.90
34837;DHT22;21053;50.848;4.652;2022-09-16T05:06:18;14.40;99.90
34837;DHT22;21053;50.848;4.652;2022-09-16T05:08:49;14.40;99.90
34837;DHT22;21053;50.848;4.652;2022-09-16T05:11:19;14.50;99.90
34837;DHT22;21053;50.848;4.652;2022-09-16T05:13:46;14.60;99.90
34837;DHT22;21053;50.848;4.652;2022-09-16T05:16:17;14.60;99.90
34837;DHT22;21053;50.848;4.652;2022-09-16T05:18:46;14.50;99.90
34837;DHT22;21053;50.848;4.652;2022-09-16T05:21:16;14.50;99.90
34837;DHT22;21053;50.848;4.652;2022-09-16T05:23:43;14.40;99.90
34837;DHT22;21053;50.848;4.652;2022-09-16T05:26:13;14.40;99.90
34837;DHT22;21053;50.848;4.652;2022-09-16T05:28:40;14.30;99.90
34837;DHT22;21053;50.848;4.652;2022-09-16T05:31:27;14.30;99.90
34837;DHT22;21053;50.848;4.652;2022-09-16T05:36:27;14.50;99.90
34837;DHT22;21053;50.848;4.652;2022-09-16T05:38:52;14.40;99.90
34837;DHT22;21053;50.848;4.652;2022-09-16T05:41:18;14.30;99.90
34837;DHT22;21053;50.848;4.652;2022-09-16T05:43:47;14.30;99.90
34837;DHT22;21053;50.848;4.652;2022-09-16T05:46:19;14.30;99.90
34837;DHT22;21053;50.848;4.652;2022-09-16T05:48:47;14.20;99.90
34837;DHT22;21053;50.848;4.652;2022-09-16T05:51:16;14.20;99.90
34837;DHT22;21053;50.848;4.652;2022-09-16T05:53:45;14.10;99.90
34837;DHT22;21053;50.848;4.652;2022-09-16T05:56:14;14.00;99.90
34837;DHT22;21053;50.848;4.652;2022-09-16T05:58:44;14.20;99.90
34837;DHT22;21053;50.848;4.652;2022-09-16T06:01:16;14.20;99.90
34837;DHT22;21053;50.848;4.652;2022-09-16T06:03:45;14.30;99.90
34837;DHT22;21053;50.848;4.652;2022-09-16T06:06:35;14.30;99.90
34837;DHT22;21053;50.848;4.652;2022-09-16T06:11:40;14.30;99.90
34837;DHT22;21053;50.848;4.652;2022-09-16T06:14:07;14.20;99.90
34837;DHT22;21053;50.848;4.652;2022-09-16T06:16:35;14.20;99.90
34837;DHT22;21053;50.848;4.652;2022-09-16T06:19:06;14.20;99.90
34837;DHT22;21053;50.848;4.652;2022-09-16T06:21:33;14.20;99.90
34837;DHT22;21053;50.848;4.652;2022-09-16T06:23:59;14.10;99.90
34837;DHT22;21053;50.848;4.652;2022-09-16T06:26:28;14.20;99.90
34837;DHT22;21053;50.848;4.652;2022-09-16T06:28:55;14.10;99.90
34837;DHT22;21053;50.848;4.652;2022-09-16T06:31:26;14.20;99.90
34837;DHT22;21053;50.848;4.652;2022-09-16T06:33:57;14.40;99.90
34837;DHT22;21053;50.848;4.652;2022-09-16T06:36:29;14.30;99.90
34837;DHT22;21053;50.848;4.652;2022-09-16T06:38:55;14.20;99.90
34837;DHT22;21053;50.848;4.652;2022-09-16T06:41:24;14.30;99.90
34837;DHT22;21053;50.848;4.652;2022-09-16T06:43:52;14.30;99.90
34837;DHT22;21053;50.848;4.652;2022-09-16T06:46:20;14.30;99.90
34837;DHT22;21053;50.848;4.652;2022-09-16T06:48:50;14.40;99.90
34837;DHT22;21053;50.848;4.652;2022-09-16T06:51:27;14.30;99.90
34837;DHT22;21053;50.848;4.652;2022-09-16T06:54:02;14.40;99.90
34837;DHT22;21053;50.848;4.652;2022-09-16T06:56:29;14.50;99.90
34837;DHT22;21053;50.848;4.652;2022-09-16T06:58:55;14.40;99.90
34837;DHT22;21053;50.848;4.652;2022-09-16T07:01:29;14.40;99.90
34837;DHT22;21053;50.848;4.652;2022-09-16T07:03:57;14.50;99.90
34837;DHT22;21053;50.848;4.652;2022-09-16T07:06:26;14.40;99.90
34837;DHT22;21053;50.848;4.652;2022-09-16T07:08:53;14.40;99.90
34837;DHT22;21053;50.848;4.652;2022-09-16T07:11:21;14.60;99.90
34837;DHT22;21053;50.848;4.652;2022-09-16T07:13:49;14.60;99.90
34837;DHT22;21053;50.848;4.652;2022-09-16T07:16:17;14.50;99.90
34837;DHT22;21053;50.848;4.652;2022-09-16T07:18:45;14.60;99.90
34837;DHT22;21053;50.848;4.652;2022-09-16T07:21:18;14.60;99.90
34837;DHT22;21053;50.848;4.652;2022-09-16T07:23:46;14.60;99.90
34837;DHT22;21053;50.848;4.652;2022-09-16T07:26:21;14.70;99.90
34837;DHT22;21053;50.848;4.652;2022-09-16T07:28:49;14.60;99.90
34837;DHT22;21053;50.848;4.652;2022-09-16T07:31:18;14.60;99.90
34837;DHT22;21053;50.848;4.652;2022-09-16T07:33:47;14.50;99.90
34837;DHT22;21053;50.848;4.652;2022-09-16T07:36:17;14.60;99.90
34837;DHT22;21053;50.848;4.652;2022-09-16T07:38:45;14.70;99.90
34837;DHT22;21053;50.848;4.652;2022-09-16T07:41:13;14.70;99.90
34837;DHT22;21053;50.848;4.652;2022-09-16T07:43:41;14.80;99.90
34837;DHT22;21053;50.848;4.652;2022-09-16T07:46:09;14.80;99.90
34837;DHT22;21053;50.848;4.652;2022-09-16T07:48:36;14.90;99.90
34837;DHT22;21053;50.848;4.652;2022-09-16T07:51:06;14.90;99.90
34837;DHT22;21053;50.848;4.652;2022-09-16T07:53:36;15.00;99.90
34837;DHT22;21053;50.848;4.652;2022-09-16T07:56:07;15.10;99.90
34837;DHT22;21053;50.848;4.652;2022-09-16T07:58:36;15.00;99.90
34837;DHT22;21053;50.848;4.652;2022-09-16T08:01:06;15.10;99.90
34837;DHT22;21053;50.848;4.652;2022-09-16T08:03:39;15.20;99.90
34837;DHT22;21053;50.848;4.652;2022-09-16T08:06:09;15.30;99.90
34837;DHT22;21053;50.848;4.652;2022-09-16T08:08:38;15.40;99.90
34837;DHT22;21053;50.848;4.652;2022-09-16T08:11:10;15.40;99.90
34837;DHT22;21053;50.848;4.652;2022-09-16T08:13:38;15.60;99.90
34837;DHT22;21053;50.848;4.652;2022-09-16T08:16:13;15.70;99.90
34837;DHT22;21053;50.848;4.652;2022-09-16T08:18:40;15.80;99.90
34837;DHT22;21053;50.848;4.652;2022-09-16T08:21:08;15.90;99.90
34837;DHT22;21053;50.848;4.652;2022-09-16T08:23:36;16.00;99.90
34837;DHT22;21053;50.848;4.652;2022-09-16T08:26:04;16.10;99.90
34837;DHT22;21053;50.848;4.652;2022-09-16T08:28:31;16.00;99.90
34837;DHT22;21053;50.848;4.652;2022-09-16T08:31:01;15.90;99.90
34837;DHT22;21053;50.848;4.652;2022-09-16T08:33:28;15.90;99.90
34837;DHT22;21053;50.848;4.652;2022-09-16T08:36:04;15.60;99.90
34837;DHT22;21053;50.848;4.652;2022-09-16T08:38:31;15.50;99.90
34837;DHT22;21053;50.848;4.652;2022-09-16T08:41:06;15.60;99.90
34837;DHT22;21053;50.848;4.652;2022-09-16T08:43:47;15.70;99.90
34837;DHT22;21053;50.848;4.652;2022-09-16T08:51:54;16.00;99.90
34837;DHT22;21053;50.848;4.652;2022-09-16T08:57:00;16.20;99.90
34837;DHT22;21053;50.848;4.652;2022-09-16T08:59:35;16.40;99.90
34837;DHT22;21053;50.848;4.652;2022-09-16T09:04:49;16.30;99.90
34837;DHT22;21053;50.848;4.652;2022-09-16T09:13:25;15.90;99.90
34837;DHT22;21053;50.848;4.652;2022-09-16T09:21:48;15.20;99.90
34837;DHT22;21053;50.848;4.652;2022-09-16T09:26:58;15.10;99.90
34837;DHT22;21053;50.848;4.652;2022-09-16T09:29:43;15.10;99.90
34837;DHT22;21053;50.848;4.652;2022-09-16T09:32:24;15.20;99.90
34837;DHT22;21053;50.848;4.652;2022-09-16T09:37:31;15.60;99.90
34837;DHT22;21053;50.848;4.652;2022-09-16T09:40:15;15.50;99.90
34837;DHT22;21053;50.848;4.652;2022-09-16T09:42:52;15.60;99.90
34837;DHT22;21053;50.848;4.652;2022-09-16T09:45:35;15.60;99.90
34837;DHT22;21053;50.848;4.652;2022-09-16T09:48:17;15.50;99.90
34837;DHT22;21053;50.848;4.652;2022-09-16T09:50:47;15.50;99.90
34837;DHT22;21053;50.848;4.652;2022-09-16T09:53:28;15.50;99.90
34837;DHT22;21053;50.848;4.652;2022-09-16T09:56:23;15.60;99.90
34837;DHT22;21053;50.848;4.652;2022-09-16T10:01:20;16.00;99.90
34837;DHT22;21053;50.848;4.652;2022-09-16T10:03:50;16.10;99.90
34837;DHT22;21053;50.848;4.652;2022-09-16T10:06:28;16.30;99.90
34837;DHT22;21053;50.848;4.652;2022-09-16T10:08:56;16.70;99.90
34837;DHT22;21053;50.848;4.652;2022-09-16T10:11:28;17.20;99.90
34837;DHT22;21053;50.848;4.652;2022-09-16T10:14:00;17.80;99.90
34837;DHT22;21053;50.848;4.652;2022-09-16T10:16:28;17.90;99.90
34837;DHT22;21053;50.848;4.652;2022-09-16T10:19:22;18.00;99.90
34837;DHT22;21053;50.848;4.652;2022-09-16T10:22:18;18.30;99.90
34837;DHT22;21053;50.848;4.652;2022-09-16T10:24:53;18.90;99.90
34837;DHT22;21053;50.848;4.652;2022-09-16T10:27:28;19.40;98.80
34837;DHT22;21053;50.848;4.652;2022-09-16T10:30:12;19.60;99.00
34837;DHT22;21053;50.848;4.652;2022-09-16T10:33:03;20.00;97.80
34837;DHT22;21053;50.848;4.652;2022-09-16T10:35:36;20.30;95.80
34837;DHT22;21053;50.848;4.652;2022-09-16T10:38:17;20.60;95.60
34837;DHT22;21053;50.848;4.652;2022-09-16T10:41:02;20.90;93.80
34837;DHT22;21053;50.848;4.652;2022-09-16T10:43:30;20.20;94.40
34837;DHT22;21053;50.848;4.652;2022-09-16T10:45:59;19.50;96.10
34837;DHT22;21053;50.848;4.652;2022-09-16T10:48:28;18.50;99.30
34837;DHT22;21053;50.848;4.652;2022-09-16T10:51:02;17.80;99.90
34837;DHT22;21053;50.848;4.652;2022-09-16T10:53:39;17.60;99.90
34837;DHT22;21053;50.848;4.652;2022-09-16T10:56:22;17.30;99.90
34837;DHT22;21053;50.848;4.652;2022-09-16T10:58:48;17.10;99.90
34837;DHT22;21053;50.848;4.652;2022-09-16T11:04:39;16.90;99.90
34837;DHT22;21053;50.848;4.652;2022-09-16T11:10:12;16.40;99.90
34837;DHT22;21053;50.848;4.652;2022-09-16T11:26:46;17.80;99.90
34837;DHT22;21053;50.848;4.652;2022-09-16T11:46:16;16.70;99.90
34837;DHT22;21053;50.848;4.652;2022-09-16T11:57:14;16.90;99.90
34837;DHT22;21053;50.848;4.652;2022-09-16T12:07:43;16.60;99.90
34837;DHT22;21053;50.848;4.652;2022-09-16T12:13:19;16.90;99.90
34837;DHT22;21053;50.848;4.652;2022-09-16T12:16:06;16.80;99.90
34837;DHT22;21053;50.848;4.652;2022-09-16T12:18:51;16.80;99.90
34837;DHT22;21053;50.848;4.652;2022-09-16T12:21:33;16.80;99.90
34837;DHT22;21053;50.848;4.652;2022-09-16T12:24:30;16.70;99.90
34837;DHT22;21053;50.848;4.652;2022-09-16T12:27:00;16.70;99.90
34837;DHT22;21053;50.848;4.652;2022-09-16T12:29:52;16.60;99.90
34837;DHT22;21053;50.848;4.652;2022-09-16T12:32:56;16.50;99.90
34837;DHT22;21053;50.848;4.652;2022-09-16T12:35:33;16.50;99.90
34837;DHT22;21053;50.848;4.652;2022-09-16T12:37:59;16.10;99.90
34837;DHT22;21053;50.848;4.652;2022-09-16T12:41:02;16.00;99.90
34837;DHT22;21053;50.848;4.652;2022-09-16T13:03:29;14.80;99.90
34837;DHT22;21053;50.848;4.652;2022-09-16T13:05:59;14.70;99.90
34837;DHT22;21053;50.848;4.652;2022-09-16T13:08:31;14.80;99.90
34837;DHT22;21053;50.848;4.652;2022-09-16T13:11:05;14.90;99.90
34837;DHT22;21053;50.848;4.652;2022-09-16T13:13:39;15.20;99.90
34837;DHT22;21053;50.848;4.652;2022-09-16T13:16:07;15.20;99.90
34837;DHT22;21053;50.848;4.652;2022-09-16T13:18:49;15.40;99.90
34837;DHT22;21053;50.848;4.652;2022-09-16T13:21:28;15.60;99.90
34837;DHT22;21053;50.848;4.652;2022-09-16T13:24:23;15.70;99.90
34837;DHT22;21053;50.848;4.652;2022-09-16T13:26:51;15.70;99.90
34837;DHT22;21053;50.848;4.652;2022-09-16T13:32:22;15.70;99.90
34837;DHT22;21053;50.848;4.652;2022-09-16T13:34:59;15.60;99.90
34837;DHT22;21053;50.848;4.652;2022-09-16T13:37:26;15.70;99.90
34837;DHT22;21053;50.848;4.652;2022-09-16T13:40:07;15.70;99.90
34837;DHT22;21053;50.848;4.652;2022-09-16T13:42:34;15.80;99.90
34837;DHT22;21053;50.848;4.652;2022-09-16T13:45:02;16.00;99.90
34837;DHT22;21053;50.848;4.652;2022-09-16T13:47:31;16.10;99.90
34837;DHT22;21053;50.848;4.652;2022-09-16T13:50:27;16.20;99.90
34837;DHT22;21053;50.848;4.652;2022-09-16T13:52:56;16.40;99.90
34837;DHT22;21053;50.848;4.652;2022-09-16T13:55:25;16.40;99.90
34837;DHT22;21053;50.848;4.652;2022-09-16T13:58:29;16.30;99.90
34837;DHT22;21053;50.848;4.652;2022-09-16T14:09:23;15.50;99.90
34837;DHT22;21053;50.848;4.652;2022-09-16T14:12:34;15.20;99.90
34837;DHT22;21053;50.848;4.652;2022-09-16T14:14:59;15.00;99.90
34837;DHT22;21053;50.848;4.652;2022-09-16T14:17:33;14.80;99.90
34837;DHT22;21053;50.848;4.652;2022-09-16T14:20:04;14.70;99.90
34837;DHT22;21053;50.848;4.652;2022-09-16T14:22:31;14.80;99.90
34837;DHT22;21053;50.848;4.652;2022-09-16T14:25:00;14.80;99.90
34837;DHT22;21053;50.848;4.652;2022-09-16T14:27:31;14.80;99.90
34837;DHT22;21053;50.848;4.652;2022-09-16T14:30:05;15.20;99.90
34837;DHT22;21053;50.848;4.652;2022-09-16T14:32:35;15.70;99.90
34837;DHT22;21053;50.848;4.652;2022-09-16T14:35:21;16.00;99.90
34837;DHT22;21053;50.848;4.652;2022-09-16T14:37:51;16.10;99.90
34837;DHT22;21053;50.848;4.652;2022-09-16T14:40:21;16.20;99.90
34837;DHT22;21053;50.848;4.652;2022-09-16T14:43:05;16.10;99.90
34837;DHT22;21053;50.848;4.652;2022-09-16T14:45:35;16.10;99.90
34837;DHT22;21053;50.848;4.652;2022-09-16T14:48:06;16.10;99.90
34837;DHT22;21053;50.848;4.652;2022-09-16T14:50:39;16.00;99.90
34837;DHT22;21053;50.848;4.652;2022-09-16T14:53:19;16.00;99.90
34837;DHT22;21053;50.848;4.652;2022-09-16T14:55:48;15.90;99.90
34837;DHT22;21053;50.848;4.652;2022-09-16T14:58:17;15.90;99.90
34837;DHT22;21053;50.848;4.652;2022-09-16T15:00:51;15.70;99.90
34837;DHT22;21053;50.848;4.652;2022-09-16T15:03:43;15.60;99.90
34837;DHT22;21053;50.848;4.652;2022-09-16T15:06:26;15.70;99.90
34837;DHT22;21053;50.848;4.652;2022-09-16T15:09:05;15.60;99.90
34837;DHT22;21053;50.848;4.652;2022-09-16T15:11:44;15.60;99.90
34837;DHT22;21053;50.848;4.652;2022-09-16T15:14:10;15.60;99.90
34837;DHT22;21053;50.848;4.652;2022-09-16T15:16:44;15.70;99.90
34837;DHT22;21053;50.848;4.652;2022-09-16T15:19:20;15.70;99.90
34837;DHT22;21053;50.848;4.652;2022-09-16T15:21:47;15.60;99.90
34837;DHT22;21053;50.848;4.652;2022-09-16T15:24:22;15.60;99.90
34837;DHT22;21053;50.848;4.652;2022-09-16T15:26:50;15.50;99.90
34837;DHT22;21053;50.848;4.652;2022-09-16T15:31:45;15.50;99.90
34837;DHT22;21053;50.848;4.652;2022-09-16T15:34:20;15.70;99.90
34837;DHT22;21053;50.848;4.652;2022-09-16T15:36:52;15.70;99.90
34837;DHT22;21053;50.848;4.652;2022-09-16T15:39:35;15.60;99.90
34837;DHT22;21053;50.848;4.652;2022-09-16T15:42:16;15.60;99.90
34837;DHT22;21053;50.848;4.652;2022-09-16T15:45:00;15.60;99.90
34837;DHT22;21053;50.848;4.652;2022-09-16T15:47:36;15.70;99.90
34837;DHT22;21053;50.848;4.652;2022-09-16T15:50:12;15.90;99.90
34837;DHT22;21053;50.848;4.652;2022-09-16T15:52:56;16.00;99.90
34837;DHT22;21053;50.848;4.652;2022-09-16T15:55:38;16.10;99.90
34837;DHT22;21053;50.848;4.652;2022-09-16T16:03:56;15.60;99.90
34837;DHT22;21053;50.848;4.652;2022-09-16T16:06:58;15.60;99.90
34837;DHT22;21053;50.848;4.652;2022-09-16T16:09:32;15.40;99.90
34837;DHT22;21053;50.848;4.652;2022-09-16T16:12:04;15.40;99.90
34837;DHT22;21053;50.848;4.652;2022-09-16T16:14:32;15.40;99.90
34837;DHT22;21053;50.848;4.652;2022-09-16T16:17:17;15.50;99.90
34837;DHT22;21053;50.848;4.652;2022-09-16T16:19:48;15.60;99.90
34837;DHT22;21053;50.848;4.652;2022-09-16T16:22:17;15.70;99.90
34837;DHT22;21053;50.848;4.652;2022-09-16T16:24:50;15.70;99.90
34837;DHT22;21053;50.848;4.652;2022-09-16T16:27:38;15.40;99.90
34837;DHT22;21053;50.848;4.652;2022-09-16T16:30:05;15.50;99.90
34837;DHT22;21053;50.848;4.652;2022-09-16T16:32:32;15.50;99.90
34837;DHT22;21053;50.848;4.652;2022-09-16T16:35:00;15.50;99.90
34837;DHT22;21053;50.848;4.652;2022-09-16T16:37:27;15.30;99.90
34837;DHT22;21053;50.848;4.652;2022-09-16T16:39:56;15.20;99.90
34837;DHT22;21053;50.848;4.652;2022-09-16T16:42:23;15.00;99.90
34837;DHT22;21053;50.848;4.652;2022-09-16T16:44:50;15.10;99.90
34837;DHT22;21053;50.848;4.652;2022-09-16T16:47:17;14.80;99.90
34837;DHT22;21053;50.848;4.652;2022-09-16T16:49:43;14.90;99.90
34837;DHT22;21053;50.848;4.652;2022-09-16T16:52:10;15.00;99.90
34837;DHT22;21053;50.848;4.652;2022-09-16T16:54:37;14.90;99.90
34837;DHT22;21053;50.848;4.652;2022-09-16T16:57:03;14.70;99.90
34837;DHT22;21053;50.848;4.652;2022-09-16T16:59:30;14.60;99.90
34837;DHT22;21053;50.848;4.652;2022-09-16T17:01:57;14.60;99.90
34837;DHT22;21053;50.848;4.652;2022-09-16T17:04:26;14.60;99.90
34837;DHT22;21053;50.848;4.652;2022-09-16T17:06:54;14.40;99.90
34837;DHT22;21053;50.848;4.652;2022-09-16T17:09:24;14.20;99.90
34837;DHT22;21053;50.848;4.652;2022-09-16T17:11:57;14.10;99.90
34837;DHT22;21053;50.848;4.652;2022-09-16T17:14:27;14.00;99.90
34837;DHT22;21053;50.848;4.652;2022-09-16T17:16:56;13.90;99.90
34837;DHT22;21053;50.848;4.652;2022-09-16T17:19:24;13.80;99.90
34837;DHT22;21053;50.848;4.652;2022-09-16T17:21:52;13.90;99.90
34837;DHT22;21053;50.848;4.652;2022-09-16T17:24:20;13.80;99.90
34837;DHT22;21053;50.848;4.652;2022-09-16T17:26:48;13.70;99.90
34837;DHT22;21053;50.848;4.652;2022-09-16T17:29:14;13.80;99.90
34837;DHT22;21053;50.848;4.652;2022-09-16T17:31:42;13.60;99.90
34837;DHT22;21053;50.848;4.652;2022-09-16T17:34:12;13.50;99.90
34837;DHT22;21053;50.848;4.652;2022-09-16T17:36:41;13.50;99.90
34837;DHT22;21053;50.848;4.652;2022-09-16T17:39:12;13.50;99.90
34837;DHT22;21053;50.848;4.652;2022-09-16T17:41:42;13.40;99.90
34837;DHT22;21053;50.848;4.652;2022-09-16T17:44:12;13.40;99.90
34837;DHT22;21053;50.848;4.652;2022-09-16T17:46:39;13.30;99.90
34837;DHT22;21053;50.848;4.652;2022-09-16T17:49:17;13.40;99.90
34837;DHT22;21053;50.848;4.652;2022-09-16T17:51:43;13.20;99.90
34837;DHT22;21053;50.848;4.652;2022-09-16T17:54:10;13.20;99.90
34837;DHT22;21053;50.848;4.652;2022-09-16T17:56:37;13.30;99.90
34837;DHT22;21053;50.848;4.652;2022-09-16T17:59:06;13.30;99.90
34837;DHT22;21053;50.848;4.652;2022-09-16T18:01:31;13.30;99.90
34837;DHT22;21053;50.848;4.652;2022-09-16T18:03:58;13.30;99.90
34837;DHT22;21053;50.848;4.652;2022-09-16T18:06:32;13.10;99.90
34837;DHT22;21053;50.848;4.652;2022-09-16T18:09:03;13.10;99.90
34837;DHT22;21053;50.848;4.652;2022-09-16T18:11:30;13.10;99.90
34837;DHT22;21053;50.848;4.652;2022-09-16T18:14:04;13.10;99.90
34837;DHT22;21053;50.848;4.652;2022-09-16T18:16:30;13.10;99.90
34837;DHT22;21053;50.848;4.652;2022-09-16T18:18:59;13.10;99.90
34837;DHT22;21053;50.848;4.652;2022-09-16T18:21:28;13.20;99.90
34837;DHT22;21053;50.848;4.652;2022-09-16T18:23:59;13.10;99.90
34837;DHT22;21053;50.848;4.652;2022-09-16T18:26:29;13.10;99.90
34837;DHT22;21053;50.848;4.652;2022-09-16T18:28:56;13.20;99.90
34837;DHT22;21053;50.848;4.652;2022-09-16T18:31:24;13.30;99.90
34837;DHT22;21053;50.848;4.652;2022-09-16T18:33:54;13.20;99.90
34837;DHT22;21053;50.848;4.652;2022-09-16T18:36:22;13.10;99.90
34837;DHT22;21053;50.848;4.652;2022-09-16T18:38:52;13.10;99.90
34837;DHT22;21053;50.848;4.652;2022-09-16T18:41:21;13.00;99.90
34837;DHT22;21053;50.848;4.652;2022-09-16T18:43:56;13.00;99.90
34837;DHT22;21053;50.848;4.652;2022-09-16T18:46:26;12.90;99.90